sensor_id;sensor_type;location;lat;lon;timestamp;pressure;altitude;pressure_sealevel;temperature;humidity
11987;BME280;6053;51.382;6.768;2022-10-16T00:01:44;100746.16;;;17.25;100.00
11987;BME280;6053;51.382;6.768;2022-10-16T00:04:13;100742.53;;;17.34;100.00
11987;BME280;6053;51.382;6.768;2022-10-16T00:06:41;100740.28;;;17.36;100.00
11987;BME280;6053;51.382;6.768;2022-10-16T00:09:10;100740.59;;;17.45;100.00
11987;BME280;6053;51.382;6.768;2022-10-16T00:11:39;100743.06;;;17.36;100.00
11987;BME280;6053;51.382;6.768;2022-10-16T00:14:10;100736.97;;;17.34;100.00
11987;BME280;6053;51.382;6.768;2022-10-16T00:16:41;100742.53;;;17.34;100.00
11987;BME280;6053;51.382;6.768;2022-10-16T00:19:10;100749.19;;;17.33;100.00
11987;BME280;6053;51.382;6.768;2022-10-16T00:21:39;100749.75;;;17.20;100.00
11987;BME280;6053;51.382;6.768;2022-10-16T00:24:09;100747.81;;;17.20;100.00
11987;BME280;6053;51.382;6.768;2022-10-16T00:26:39;100750.88;;;17.29;100.00
11987;BME280;6053;51.382;6.768;2022-10-16T00:29:07;100752.81;;;17.18;100.00
11987;BME280;6053;51.382;6.768;2022-10-16T00:31:36;100750.00;;;17.13;100.00
11987;BME280;6053;51.382;6.768;2022-10-16T00:34:05;100755.63;;;17.24;100.00
11987;BME280;6053;51.382;6.768;2022-10-16T00:36:33;100751.16;;;17.33;100.00
11987;BME280;6053;51.382;6.768;2022-10-16T00:39:02;100758.13;;;17.30;100.00
11987;BME280;6053;51.382;6.768;2022-10-16T00:41:32;100752.25;;;17.16;100.00
11987;BME280;6053;51.382;6.768;2022-10-16T00:44:02;100748.34;;;16.97;100.00
11987;BME280;6053;51.382;6.768;2022-10-16T00:46:37;100737.16;;;16.92;100.00
11987;BME280;6053;51.382;6.768;2022-10-16T00:49:10;100737.41;;;16.85;100.00
11987;BME280;6053;51.382;6.768;2022-10-16T00:51:42;100741.38;;;17.05;100.00
11987;BME280;6053;51.382;6.768;2022-10-16T00:54:15;100736.34;;;17.07;100.00
11987;BME280;6053;51.382;6.768;2022-10-16T00:56:45;100730.22;;;17.10;100.00
11987;BME280;6053;51.382;6.768;2022-10-16T00:59:18;100735.50;;;17.06;100.00
11987;BME280;6053;51.382;6.768;2022-10-16T01:01:47;100734.16;;;17.14;100.00
11987;BME280;6053;51.382;6.768;2022-10-16T01:04:17;100737.50;;;17.11;100.00
11987;BME280;6053;51.382;6.768;2022-10-16T01:06:53;100740.78;;;16.92;100.00
11987;BME280;6053;51.382;6.768;2022-10-16T01:09:28;100738.31;;;17.01;100.00
11987;BME280;6053;51.382;6.768;2022-10-16T01:12:06;100740.53;;;17.09;100.00
11987;BME280;6053;51.382;6.768;2022-10-16T01:14:43;100743.84;;;16.96;100.00
11987;BME280;6053;51.382;6.768;2022-10-16T01:17:18;100748.34;;;17.07;100.00
11987;BME280;6053;51.382;6.768;2022-10-16T01:20:04;100751.69;;;17.09;100.00
11987;BME280;6053;51.382;6.768;2022-10-16T01:22:44;100754.50;;;17.14;100.00
11987;BME280;6053;51.382;6.768;2022-10-16T01:25:23;100749.19;;;17.23;100.00
11987;BME280;6053;51.382;6.768;2022-10-16T01:27:56;100750.31;;;17.17;100.00
11987;BME280;6053;51.382;6.768;2022-10-16T01:30:27;100750.31;;;17.22;100.00
11987;BME280;6053;51.382;6.768;2022-10-16T01:33:02;100750.59;;;17.10;100.00
11987;BME280;6053;51.382;6.768;2022-10-16T01:35:36;100750.81;;;16.99;100.00
11987;BME280;6053;51.382;6.768;2022-10-16T01:38:10;100749.16;;;16.98;100.00
11987;BME280;6053;51.382;6.768;2022-10-16T01:40:46;100748.34;;;17.12;100.00
11987;BME280;6053;51.382;6.768;2022-10-16T01:43:20;100738.06;;;17.18;100.00
11987;BME280;6053;51.382;6.768;2022-10-16T01:45:51;100738.75;;;16.67;100.00
11987;BME280;6053;51.382;6.768;2022-10-16T01:48:21;100746.03;;;16.79;100.00
11987;BME280;6053;51.382;6.768;2022-10-16T01:50:55;100744.03;;;16.64;100.00
11987;BME280;6053;51.382;6.768;2022-10-16T01:53:26;100743.56;;;16.30;100.00
11987;BME280;6053;51.382;6.768;2022-10-16T01:55:56;100742.69;;;16.19;100.00
11987;BME280;6053;51.382;6.768;2022-10-16T01:58:28;100746.25;;;16.09;100.00
11987;BME280;6053;51.382;6.768;2022-10-16T02:01:03;100746.03;;;15.73;100.00
11987;BME280;6053;51.382;6.768;2022-10-16T02:03:32;100746.47;;;15.97;100.00
11987;BME280;6053;51.382;6.768;2022-10-16T02:06:03;100749.25;;;16.02;100.00
11987;BME280;6053;51.382;6.768;2022-10-16T02:08:32;100746.19;;;15.99;100.00
11987;BME280;6053;51.382;6.768;2022-10-16T02:11:01;100747.06;;;16.05;100.00
11987;BME280;6053;51.382;6.768;2022-10-16T02:13:35;100746.88;;;15.79;100.00
11987;BME280;6053;51.382;6.768;2022-10-16T02:16:06;100750.19;;;16.13;100.00
11987;BME280;6053;51.382;6.768;2022-10-16T02:18:35;100759.28;;;16.56;100.00
11987;BME280;6053;51.382;6.768;2022-10-16T02:21:12;100761.91;;;16.83;100.00
11987;BME280;6053;51.382;6.768;2022-10-16T02:23:49;100769.19;;;16.84;100.00
11987;BME280;6053;51.382;6.768;2022-10-16T02:26:27;100766.44;;;17.00;100.00
11987;BME280;6053;51.382;6.768;2022-10-16T02:29:02;100772.03;;;17.10;100.00
11987;BME280;6053;51.382;6.768;2022-10-16T02:31:35;100770.06;;;17.05;100.00
11987;BME280;6053;51.382;6.768;2022-10-16T02:34:06;100766.72;;;16.98;100.00
11987;BME280;6053;51.382;6.768;2022-10-16T02:36:35;100761.31;;;16.71;100.00
11987;BME280;6053;51.382;6.768;2022-10-16T02:39:04;100764.94;;;16.71;100.00
11987;BME280;6053;51.382;6.768;2022-10-16T02:41:33;100758.56;;;16.76;100.00
11987;BME280;6053;51.382;6.768;2022-10-16T02:44:03;100768.09;;;16.95;100.00
11987;BME280;6053;51.382;6.768;2022-10-16T02:46:31;100763.94;;;16.98;100.00
11987;BME280;6053;51.382;6.768;2022-10-16T02:49:00;100773.88;;;16.21;100.00
11987;BME280;6053;51.382;6.768;2022-10-16T02:51:28;100764.75;;;15.88;100.00
11987;BME280;6053;51.382;6.768;2022-10-16T02:53:56;100759.41;;;15.76;100.00
11987;BME280;6053;51.382;6.768;2022-10-16T02:56:24;100758.16;;;16.47;100.00
11987;BME280;6053;51.382;6.768;2022-10-16T02:58:52;100765.13;;;16.02;100.00
11987;BME280;6053;51.382;6.768;2022-10-16T03:01:22;100759.84;;;16.06;100.00
11987;BME280;6053;51.382;6.768;2022-10-16T03:03:51;100763.56;;;15.79;100.00
11987;BME280;6053;51.382;6.768;2022-10-16T03:06:19;100773.34;;;16.29;100.00
11987;BME280;6053;51.382;6.768;2022-10-16T03:08:47;100766.69;;;16.30;100.00
11987;BME280;6053;51.382;6.768;2022-10-16T03:11:15;100764.22;;;16.39;100.00
11987;BME280;6053;51.382;6.768;2022-10-16T03:13:43;100768.38;;;16.36;100.00
11987;BME280;6053;51.382;6.768;2022-10-16T03:16:11;100765.94;;;16.45;100.00
11987;BME280;6053;51.382;6.768;2022-10-16T03:18:41;100769.84;;;16.49;100.00
11987;BME280;6053;51.382;6.768;2022-10-16T03:21:09;100770.06;;;16.37;100.00
11987;BME280;6053;51.382;6.768;2022-10-16T03:23:38;100764.72;;;16.78;100.00
11987;BME280;6053;51.382;6.768;2022-10-16T03:26:06;100770.31;;;16.88;100.00
11987;BME280;6053;51.382;6.768;2022-10-16T03:28:34;100765.56;;;16.84;100.00
11987;BME280;6053;51.382;6.768;2022-10-16T03:31:02;100766.66;;;16.78;100.00
11987;BME280;6053;51.382;6.768;2022-10-16T03:33:30;100763.72;;;16.52;100.00
11987;BME280;6053;51.382;6.768;2022-10-16T03:36:00;100766.34;;;16.21;100.00
11987;BME280;6053;51.382;6.768;2022-10-16T03:38:28;100772.19;;;15.77;100.00
11987;BME280;6053;51.382;6.768;2022-10-16T03:40:56;100770.31;;;16.36;100.00
11987;BME280;6053;51.382;6.768;2022-10-16T03:43:24;100780.31;;;16.26;100.00
11987;BME280;6053;51.382;6.768;2022-10-16T03:45:53;100780.19;;;16.54;100.00
11987;BME280;6053;51.382;6.768;2022-10-16T03:48:21;100776.84;;;16.09;100.00
11987;BME280;6053;51.382;6.768;2022-10-16T03:50:49;100769.47;;;16.30;100.00
11987;BME280;6053;51.382;6.768;2022-10-16T03:53:19;100777.44;;;16.69;100.00
11987;BME280;6053;51.382;6.768;2022-10-16T03:55:48;100781.31;;;16.58;100.00
11987;BME280;6053;51.382;6.768;2022-10-16T03:58:16;100781.50;;;16.41;100.00
11987;BME280;6053;51.382;6.768;2022-10-16T04:00:45;100772.91;;;16.53;100.00
11987;BME280;6053;51.382;6.768;2022-10-16T04:03:14;100779.06;;;16.55;100.00
11987;BME280;6053;51.382;6.768;2022-10-16T04:05:42;100775.56;;;16.75;100.00
11987;BME280;6053;51.382;6.768;2022-10-16T04:08:10;100788.59;;;16.64;100.00
11987;BME280;6053;51.382;6.768;2022-10-16T04:10:42;100792.44;;;16.58;100.00
11987;BME280;6053;51.382;6.768;2022-10-16T04:13:10;100788.25;;;16.55;100.00
11987;BME280;6053;51.382;6.768;2022-10-16T04:15:39;100802.19;;;16.13;100.00
11987;BME280;6053;51.382;6.768;2022-10-16T04:18:07;100796.25;;;15.94;100.00
11987;BME280;6053;51.382;6.768;2022-10-16T04:20:36;100800.06;;;16.25;100.00
11987;BME280;6053;51.382;6.768;2022-10-16T04:23:04;100795.03;;;16.22;100.00
11987;BME280;6053;51.382;6.768;2022-10-16T04:25:32;100804.94;;;16.50;100.00
11987;BME280;6053;51.382;6.768;2022-10-16T04:28:02;100813.91;;;16.15;100.00
11987;BME280;6053;51.382;6.768;2022-10-16T04:30:30;100814.56;;;16.27;100.00
11987;BME280;6053;51.382;6.768;2022-10-16T04:33:00;100824.50;;;16.18;100.00
11987;BME280;6053;51.382;6.768;2022-10-16T04:35:28;100819.47;;;15.77;100.00
11987;BME280;6053;51.382;6.768;2022-10-16T04:37:57;100823.41;;;15.82;100.00
11987;BME280;6053;51.382;6.768;2022-10-16T04:40:25;100838.34;;;15.75;100.00
11987;BME280;6053;51.382;6.768;2022-10-16T04:42:54;100828.97;;;15.82;100.00
11987;BME280;6053;51.382;6.768;2022-10-16T04:45:24;100822.19;;;16.05;100.00
11987;BME280;6053;51.382;6.768;2022-10-16T04:47:52;100817.63;;;16.31;100.00
11987;BME280;6053;51.382;6.768;2022-10-16T04:50:20;100824.56;;;16.28;100.00
11987;BME280;6053;51.382;6.768;2022-10-16T04:52:48;100826.06;;;15.66;100.00
11987;BME280;6053;51.382;6.768;2022-10-16T04:55:17;100837.88;;;15.84;100.00
11987;BME280;6053;51.382;6.768;2022-10-16T04:57:45;100830.34;;;16.16;100.00
11987;BME280;6053;51.382;6.768;2022-10-16T05:00:13;100842.66;;;16.25;100.00
11987;BME280;6053;51.382;6.768;2022-10-16T05:02:43;100848.66;;;16.07;100.00
11987;BME280;6053;51.382;6.768;2022-10-16T05:05:11;100857.38;;;15.84;100.00
11987;BME280;6053;51.382;6.768;2022-10-16T05:07:41;100862.53;;;15.70;100.00
11987;BME280;6053;51.382;6.768;2022-10-16T05:10:09;100861.81;;;15.85;100.00
11987;BME280;6053;51.382;6.768;2022-10-16T05:12:37;100857.75;;;15.97;100.00
11987;BME280;6053;51.382;6.768;2022-10-16T05:15:07;100868.06;;;16.02;100.00
11987;BME280;6053;51.382;6.768;2022-10-16T05:17:35;100868.81;;;16.24;100.00
11987;BME280;6053;51.382;6.768;2022-10-16T05:20:12;100869.13;;;16.28;100.00
11987;BME280;6053;51.382;6.768;2022-10-16T05:22:41;100874.38;;;16.24;100.00
11987;BME280;6053;51.382;6.768;2022-10-16T05:25:09;100865.97;;;16.19;100.00
11987;BME280;6053;51.382;6.768;2022-10-16T05:27:37;100866.72;;;16.05;100.00
11987;BME280;6053;51.382;6.768;2022-10-16T05:30:07;100867.59;;;16.10;100.00
11987;BME280;6053;51.382;6.768;2022-10-16T05:32:38;100874.38;;;15.92;100.00
11987;BME280;6053;51.382;6.768;2022-10-16T05:35:07;100882.28;;;16.06;100.00
11987;BME280;6053;51.382;6.768;2022-10-16T05:37:40;100871.38;;;15.99;100.00
11987;BME280;6053;51.382;6.768;2022-10-16T05:40:09;100873.09;;;16.00;100.00
11987;BME280;6053;51.382;6.768;2022-10-16T05:42:37;100881.47;;;16.05;100.00
11987;BME280;6053;51.382;6.768;2022-10-16T05:45:07;100883.50;;;16.15;100.00
11987;BME280;6053;51.382;6.768;2022-10-16T05:47:36;100877.44;;;15.91;100.00
11987;BME280;6053;51.382;6.768;2022-10-16T05:50:05;100882.25;;;16.00;100.00
11987;BME280;6053;51.382;6.768;2022-10-16T05:52:33;100890.84;;;16.31;100.00
11987;BME280;6053;51.382;6.768;2022-10-16T05:55:04;100904.53;;;16.00;100.00
11987;BME280;6053;51.382;6.768;2022-10-16T05:57:32;100904.09;;;16.19;100.00
11987;BME280;6053;51.382;6.768;2022-10-16T06:00:01;100900.03;;;15.99;100.00
11987;BME280;6053;51.382;6.768;2022-10-16T06:02:29;100907.44;;;15.84;100.00
11987;BME280;6053;51.382;6.768;2022-10-16T06:04:57;100916.47;;;15.47;100.00
11987;BME280;6053;51.382;6.768;2022-10-16T06:07:25;100922.50;;;15.88;100.00
11987;BME280;6053;51.382;6.768;2022-10-16T06:09:54;100929.53;;;16.33;100.00
11987;BME280;6053;51.382;6.768;2022-10-16T06:12:24;100924.84;;;16.01;100.00
11987;BME280;6053;51.382;6.768;2022-10-16T06:14:52;100926.75;;;15.68;100.00
11987;BME280;6053;51.382;6.768;2022-10-16T06:17:20;100926.44;;;15.43;100.00
11987;BME280;6053;51.382;6.768;2022-10-16T06:19:49;100934.78;;;15.21;100.00
11987;BME280;6053;51.382;6.768;2022-10-16T06:22:17;100932.47;;;15.62;100.00
11987;BME280;6053;51.382;6.768;2022-10-16T06:24:46;100928.16;;;15.49;100.00
11987;BME280;6053;51.382;6.768;2022-10-16T06:27:14;100934.59;;;15.27;100.00
11987;BME280;6053;51.382;6.768;2022-10-16T06:29:44;100923.84;;;15.14;100.00
11987;BME280;6053;51.382;6.768;2022-10-16T06:32:12;100943.63;;;15.18;100.00
11987;BME280;6053;51.382;6.768;2022-10-16T06:34:41;100952.72;;;15.57;100.00
11987;BME280;6053;51.382;6.768;2022-10-16T06:37:10;100948.25;;;16.05;100.00
11987;BME280;6053;51.382;6.768;2022-10-16T06:39:38;100951.44;;;16.19;100.00
11987;BME280;6053;51.382;6.768;2022-10-16T06:42:06;100957.81;;;16.19;100.00
11987;BME280;6053;51.382;6.768;2022-10-16T06:44:34;100950.59;;;16.50;100.00
11987;BME280;6053;51.382;6.768;2022-10-16T06:47:04;100962.59;;;16.56;100.00
11987;BME280;6053;51.382;6.768;2022-10-16T06:49:32;100975.81;;;16.39;100.00
11987;BME280;6053;51.382;6.768;2022-10-16T06:52:00;100983.69;;;16.47;100.00
11987;BME280;6053;51.382;6.768;2022-10-16T06:54:29;100985.00;;;16.07;100.00
11987;BME280;6053;51.382;6.768;2022-10-16T06:57:07;100994.22;;;16.13;100.00
11987;BME280;6053;51.382;6.768;2022-10-16T06:59:36;100999.69;;;16.30;100.00
11987;BME280;6053;51.382;6.768;2022-10-16T07:02:05;101006.75;;;16.10;100.00
11987;BME280;6053;51.382;6.768;2022-10-16T07:04:36;101005.44;;;15.91;100.00
11987;BME280;6053;51.382;6.768;2022-10-16T07:07:04;101016.28;;;16.19;100.00
11987;BME280;6053;51.382;6.768;2022-10-16T07:09:35;101017.41;;;16.18;100.00
11987;BME280;6053;51.382;6.768;2022-10-16T07:12:04;101026.47;;;16.09;100.00
11987;BME280;6053;51.382;6.768;2022-10-16T07:14:32;101037.50;;;15.98;100.00
11987;BME280;6053;51.382;6.768;2022-10-16T07:17:00;101034.03;;;16.40;100.00
11987;BME280;6053;51.382;6.768;2022-10-16T07:19:30;101034.75;;;16.58;100.00
11987;BME280;6053;51.382;6.768;2022-10-16T07:22:00;101042.94;;;16.42;100.00
11987;BME280;6053;51.382;6.768;2022-10-16T07:24:29;101044.00;;;16.63;100.00
11987;BME280;6053;51.382;6.768;2022-10-16T07:26:58;101043.16;;;16.36;100.00
11987;BME280;6053;51.382;6.768;2022-10-16T07:29:26;101039.44;;;16.52;100.00
11987;BME280;6053;51.382;6.768;2022-10-16T07:31:54;101047.94;;;16.67;100.00
11987;BME280;6053;51.382;6.768;2022-10-16T07:34:23;101041.47;;;16.62;100.00
11987;BME280;6053;51.382;6.768;2022-10-16T07:36:53;101055.56;;;16.77;100.00
11987;BME280;6053;51.382;6.768;2022-10-16T07:39:21;101056.72;;;16.86;100.00
11987;BME280;6053;51.382;6.768;2022-10-16T07:41:49;101062.22;;;16.76;100.00
11987;BME280;6053;51.382;6.768;2022-10-16T07:44:17;101063.06;;;16.49;100.00
11987;BME280;6053;51.382;6.768;2022-10-16T07:46:46;101070.66;;;16.27;100.00
11987;BME280;6053;51.382;6.768;2022-10-16T07:49:14;101075.28;;;16.43;100.00
11987;BME280;6053;51.382;6.768;2022-10-16T07:51:42;101079.56;;;16.02;100.00
11987;BME280;6053;51.382;6.768;2022-10-16T07:54:12;101081.56;;;15.85;100.00
11987;BME280;6053;51.382;6.768;2022-10-16T07:56:40;101080.16;;;15.82;100.00
11987;BME280;6053;51.382;6.768;2022-10-16T07:59:10;101087.09;;;15.41;100.00
11987;BME280;6053;51.382;6.768;2022-10-16T08:01:38;101079.94;;;15.89;100.00
11987;BME280;6053;51.382;6.768;2022-10-16T08:04:06;101088.94;;;16.18;100.00
11987;BME280;6053;51.382;6.768;2022-10-16T08:06:38;101093.03;;;16.10;100.00
11987;BME280;6053;51.382;6.768;2022-10-16T08:09:07;101095.16;;;15.81;100.00
11987;BME280;6053;51.382;6.768;2022-10-16T08:11:37;101091.69;;;15.52;100.00
11987;BME280;6053;51.382;6.768;2022-10-16T08:14:05;101101.53;;;16.25;100.00
11987;BME280;6053;51.382;6.768;2022-10-16T08:16:34;101110.09;;;16.46;100.00
11987;BME280;6053;51.382;6.768;2022-10-16T08:19:02;101116.53;;;16.46;100.00
11987;BME280;6053;51.382;6.768;2022-10-16T08:21:30;101116.97;;;16.38;100.00
11987;BME280;6053;51.382;6.768;2022-10-16T08:23:58;101118.09;;;16.37;100.00
11987;BME280;6053;51.382;6.768;2022-10-16T08:26:27;101117.16;;;16.05;100.00
11987;BME280;6053;51.382;6.768;2022-10-16T08:28:56;101130.94;;;16.16;100.00
11987;BME280;6053;51.382;6.768;2022-10-16T08:31:25;101127.69;;;16.24;100.00
11987;BME280;6053;51.382;6.768;2022-10-16T08:33:54;101130.16;;;15.99;100.00
11987;BME280;6053;51.382;6.768;2022-10-16T08:36:22;101145.13;;;16.15;100.00
11987;BME280;6053;51.382;6.768;2022-10-16T08:38:50;101148.59;;;16.27;100.00
11987;BME280;6053;51.382;6.768;2022-10-16T08:41:55;101152.53;;;16.31;100.00
11987;BME280;6053;51.382;6.768;2022-10-16T08:47:43;101163.31;;;16.00;100.00
11987;BME280;6053;51.382;6.768;2022-10-16T08:50:17;101162.56;;;16.32;100.00
11987;BME280;6053;51.382;6.768;2022-10-16T08:52:46;101166.72;;;16.79;100.00
11987;BME280;6053;51.382;6.768;2022-10-16T08:55:29;101172.53;;;16.50;100.00
11987;BME280;6053;51.382;6.768;2022-10-16T08:57:59;101174.31;;;16.61;100.00
11987;BME280;6053;51.382;6.768;2022-10-16T09:00:30;101177.16;;;16.17;100.00
11987;BME280;6053;51.382;6.768;2022-10-16T09:03:07;101181.25;;;16.59;100.00
11987;BME280;6053;51.382;6.768;2022-10-16T09:05:54;101183.28;;;16.63;100.00
11987;BME280;6053;51.382;6.768;2022-10-16T09:08:34;101184.88;;;16.81;100.00
11987;BME280;6053;51.382;6.768;2022-10-16T09:11:12;101184.97;;;16.42;100.00
11987;BME280;6053;51.382;6.768;2022-10-16T09:13:50;101183.13;;;16.53;100.00
11987;BME280;6053;51.382;6.768;2022-10-16T09:16:25;101195.94;;;16.27;100.00
11987;BME280;6053;51.382;6.768;2022-10-16T09:19:04;101187.13;;;16.35;100.00
11987;BME280;6053;51.382;6.768;2022-10-16T09:21:40;101194.22;;;16.97;100.00
11987;BME280;6053;51.382;6.768;2022-10-16T09:24:14;101193.84;;;16.88;100.00
11987;BME280;6053;51.382;6.768;2022-10-16T09:26:43;101195.63;;;17.69;100.00
11987;BME280;6053;51.382;6.768;2022-10-16T09:29:13;101209.09;;;18.30;100.00
11987;BME280;6053;51.382;6.768;2022-10-16T09:31:43;101197.81;;;18.72;100.00
11987;BME280;6053;51.382;6.768;2022-10-16T09:34:25;101203.69;;;18.81;100.00
11987;BME280;6053;51.382;6.768;2022-10-16T09:36:57;101212.44;;;19.25;100.00
11987;BME280;6053;51.382;6.768;2022-10-16T09:39:27;101204.47;;;18.66;100.00
11987;BME280;6053;51.382;6.768;2022-10-16T09:41:55;101195.91;;;19.44;100.00
11987;BME280;6053;51.382;6.768;2022-10-16T09:44:26;101197.06;;;19.13;100.00
11987;BME280;6053;51.382;6.768;2022-10-16T09:47:04;101194.25;;;19.28;100.00
11987;BME280;6053;51.382;6.768;2022-10-16T09:49:33;101191.72;;;19.37;100.00
11987;BME280;6053;51.382;6.768;2022-10-16T09:52:06;101207.41;;;19.63;100.00
11987;BME280;6053;51.382;6.768;2022-10-16T09:54:50;101201.25;;;19.05;100.00
11987;BME280;6053;51.382;6.768;2022-10-16T09:57:20;101202.06;;;19.77;100.00
11987;BME280;6053;51.382;6.768;2022-10-16T09:59:51;101206.84;;;19.56;100.00
11987;BME280;6053;51.382;6.768;2022-10-16T10:02:30;101212.44;;;19.76;100.00
11987;BME280;6053;51.382;6.768;2022-10-16T10:05:02;101206.28;;;19.08;100.00
11987;BME280;6053;51.382;6.768;2022-10-16T10:07:35;101207.09;;;19.54;100.00
11987;BME280;6053;51.382;6.768;2022-10-16T10:10:19;101211.31;;;19.72;100.00
11987;BME280;6053;51.382;6.768;2022-10-16T10:12:48;101214.25;;;20.22;100.00
11987;BME280;6053;51.382;6.768;2022-10-16T10:15:17;101206.63;;;20.43;100.00
11987;BME280;6053;51.382;6.768;2022-10-16T10:17:52;101212.28;;;20.33;100.00
11987;BME280;6053;51.382;6.768;2022-10-16T10:20:26;101207.91;;;19.91;100.00
11987;BME280;6053;51.382;6.768;2022-10-16T10:22:56;101208.13;;;20.20;100.00
11987;BME280;6053;51.382;6.768;2022-10-16T10:25:48;101213.94;;;20.34;100.00
11987;BME280;6053;51.382;6.768;2022-10-16T10:28:45;101219.88;;;20.17;100.00
11987;BME280;6053;51.382;6.768;2022-10-16T10:31:24;101223.34;;;19.73;100.00
11987;BME280;6053;51.382;6.768;2022-10-16T10:34:16;101227.47;;;20.11;100.00
11987;BME280;6053;51.382;6.768;2022-10-16T10:36:56;101222.75;;;19.96;100.00
11987;BME280;6053;51.382;6.768;2022-10-16T10:39:33;101219.44;;;19.64;100.00
11987;BME280;6053;51.382;6.768;2022-10-16T10:42:15;101219.97;;;19.20;100.00
11987;BME280;6053;51.382;6.768;2022-10-16T10:45:11;101217.16;;;18.94;100.00
11987;BME280;6053;51.382;6.768;2022-10-16T10:47:59;101226.34;;;18.84;100.00
11987;BME280;6053;51.382;6.768;2022-10-16T10:50:39;101218.13;;;18.57;100.00
11987;BME280;6053;51.382;6.768;2022-10-16T10:53:24;101221.88;;;18.83;100.00
11987;BME280;6053;51.382;6.768;2022-10-16T10:56:09;101228.78;;;18.71;100.00
11987;BME280;6053;51.382;6.768;2022-10-16T11:02:15;101223.53;;;18.74;100.00
11987;BME280;6053;51.382;6.768;2022-10-16T11:08:16;101224.84;;;18.56;100.00
11987;BME280;6053;51.382;6.768;2022-10-16T11:10:51;101222.63;;;18.64;100.00
11987;BME280;6053;51.382;6.768;2022-10-16T11:13:28;101222.19;;;19.07;100.00
11987;BME280;6053;51.382;6.768;2022-10-16T11:16:00;101221.91;;;19.04;100.00
11987;BME280;6053;51.382;6.768;2022-10-16T11:18:38;101228.22;;;18.64;100.00
11987;BME280;6053;51.382;6.768;2022-10-16T11:21:11;101224.13;;;18.87;100.00
11987;BME280;6053;51.382;6.768;2022-10-16T11:23:46;101226.38;;;19.00;100.00
11987;BME280;6053;51.382;6.768;2022-10-16T11:26:23;101231.16;;;18.99;100.00
11987;BME280;6053;51.382;6.768;2022-10-16T11:28:54;101233.94;;;18.99;100.00
11987;BME280;6053;51.382;6.768;2022-10-16T11:31:32;101233.97;;;19.20;100.00
11987;BME280;6053;51.382;6.768;2022-10-16T11:34:10;101240.09;;;19.01;100.00
11987;BME280;6053;51.382;6.768;2022-10-16T11:36:49;101239.22;;;18.91;100.00
11987;BME280;6053;51.382;6.768;2022-10-16T11:39:23;101240.94;;;19.07;100.00
11987;BME280;6053;51.382;6.768;2022-10-16T11:41:56;101235.38;;;19.27;100.00
11987;BME280;6053;51.382;6.768;2022-10-16T11:44:41;101225.28;;;19.21;100.00
11987;BME280;6053;51.382;6.768;2022-10-16T11:47:27;101230.56;;;18.87;100.00
11987;BME280;6053;51.382;6.768;2022-10-16T11:50:24;101234.25;;;19.08;100.00
11987;BME280;6053;51.382;6.768;2022-10-16T11:53:01;101239.84;;;19.23;100.00
11987;BME280;6053;51.382;6.768;2022-10-16T11:55:36;101244.03;;;19.05;100.00
11987;BME280;6053;51.382;6.768;2022-10-16T11:58:21;101247.41;;;19.23;100.00
11987;BME280;6053;51.382;6.768;2022-10-16T12:01:00;101242.31;;;18.99;100.00
11987;BME280;6053;51.382;6.768;2022-10-16T12:03:36;101244.00;;;19.11;100.00
11987;BME280;6053;51.382;6.768;2022-10-16T12:06:23;101252.41;;;19.11;100.00
11987;BME280;6053;51.382;6.768;2022-10-16T12:08:55;101247.38;;;19.13;100.00
11987;BME280;6053;51.382;6.768;2022-10-16T12:11:35;101240.69;;;19.39;100.00
11987;BME280;6053;51.382;6.768;2022-10-16T12:14:16;101242.91;;;19.12;100.00
11987;BME280;6053;51.382;6.768;2022-10-16T12:16:54;101254.38;;;19.20;100.00
11987;BME280;6053;51.382;6.768;2022-10-16T12:19:25;101253.53;;;19.15;100.00
11987;BME280;6053;51.382;6.768;2022-10-16T12:21:57;101258.78;;;18.91;100.00
11987;BME280;6053;51.382;6.768;2022-10-16T12:24:34;101245.69;;;19.01;100.00
11987;BME280;6053;51.382;6.768;2022-10-16T12:27:19;101253.84;;;19.18;100.00
11987;BME280;6053;51.382;6.768;2022-10-16T12:29:55;101251.28;;;19.01;100.00
11987;BME280;6053;51.382;6.768;2022-10-16T12:32:30;101245.44;;;19.18;100.00
11987;BME280;6053;51.382;6.768;2022-10-16T12:35:20;101247.09;;;19.24;100.00
11987;BME280;6053;51.382;6.768;2022-10-16T12:37:50;101249.66;;;19.36;100.00
11987;BME280;6053;51.382;6.768;2022-10-16T12:40:30;101250.78;;;19.35;100.00
11987;BME280;6053;51.382;6.768;2022-10-16T12:43:23;101257.47;;;19.39;100.00
11987;BME280;6053;51.382;6.768;2022-10-16T12:46:05;101257.22;;;19.66;100.00
11987;BME280;6053;51.382;6.768;2022-10-16T12:48:48;101254.13;;;19.42;100.00
11987;BME280;6053;51.382;6.768;2022-10-16T12:51:36;101265.31;;;19.37;100.00
11987;BME280;6053;51.382;6.768;2022-10-16T12:54:12;101271.19;;;19.36;100.00
11987;BME280;6053;51.382;6.768;2022-10-16T12:56:50;101258.31;;;19.50;100.00
11987;BME280;6053;51.382;6.768;2022-10-16T12:59:33;101271.75;;;19.68;100.00
11987;BME280;6053;51.382;6.768;2022-10-16T13:05:29;101260.25;;;19.34;100.00
11987;BME280;6053;51.382;6.768;2022-10-16T13:08:32;101259.19;;;19.76;100.00
11987;BME280;6053;51.382;6.768;2022-10-16T13:11:10;101253.56;;;19.81;100.00
11987;BME280;6053;51.382;6.768;2022-10-16T13:17:05;101254.69;;;19.90;100.00
11987;BME280;6053;51.382;6.768;2022-10-16T13:19:44;101258.31;;;19.91;100.00
11987;BME280;6053;51.382;6.768;2022-10-16T13:22:21;101258.06;;;19.82;100.00
11987;BME280;6053;51.382;6.768;2022-10-16T13:25:08;101264.47;;;19.93;100.00
11987;BME280;6053;51.382;6.768;2022-10-16T13:27:48;101273.44;;;19.49;100.00
11987;BME280;6053;51.382;6.768;2022-10-16T13:30:23;101277.94;;;19.70;100.00
11987;BME280;6053;51.382;6.768;2022-10-16T13:33:00;101277.09;;;19.80;100.00
11987;BME280;6053;51.382;6.768;2022-10-16T13:35:32;101283.53;;;19.86;100.00